sensor_id;sensor_type;location;lat;lon;timestamp;P1;durP1;ratioP1;P2;durP2;ratioP2
8716;SDS011;4395;48.554;8.820;2023-05-17T00:01:14;2.90;;;1.50;;
8716;SDS011;4395;48.554;8.820;2023-05-17T00:03:19;4.13;;;1.30;;
8716;SDS011;4395;48.554;8.820;2023-05-17T00:05:22;2.63;;;1.25;;
8716;SDS011;4395;48.554;8.820;2023-05-17T00:07:24;2.28;;;1.25;;
8716;SDS011;4395;48.554;8.820;2023-05-17T00:09:27;3.53;;;1.40;;
8716;SDS011;4395;48.554;8.820;2023-05-17T00:11:30;2.92;;;1.17;;
8716;SDS011;4395;48.554;8.820;2023-05-17T00:13:33;4.03;;;1.85;;
8716;SDS011;4395;48.554;8.820;2023-05-17T00:15:36;3.22;;;1.40;;
8716;SDS011;4395;48.554;8.820;2023-05-17T00:17:40;5.00;;;1.52;;
8716;SDS011;4395;48.554;8.820;2023-05-17T00:19:43;1.73;;;1.30;;
8716;SDS011;4395;48.554;8.820;2023-05-17T00:21:46;2.83;;;1.15;;
8716;SDS011;4395;48.554;8.820;2023-05-17T00:23:49;2.35;;;1.20;;
8716;SDS011;4395;48.554;8.820;2023-05-17T00:25:52;7.22;;;1.40;;
8716;SDS011;4395;48.554;8.820;2023-05-17T00:27:54;2.55;;;1.40;;
8716;SDS011;4395;48.554;8.820;2023-05-17T00:29:57;3.38;;;1.98;;
8716;SDS011;4395;48.554;8.820;2023-05-17T00:32:00;3.00;;;1.30;;
8716;SDS011;4395;48.554;8.820;2023-05-17T00:34:04;2.88;;;1.10;;
8716;SDS011;4395;48.554;8.820;2023-05-17T00:36:07;2.38;;;0.93;;
8716;SDS011;4395;48.554;8.820;2023-05-17T00:38:10;2.70;;;1.13;;
8716;SDS011;4395;48.554;8.820;2023-05-17T00:40:13;3.17;;;1.30;;
8716;SDS011;4395;48.554;8.820;2023-05-17T00:42:17;2.78;;;1.17;;
8716;SDS011;4395;48.554;8.820;2023-05-17T00:44:21;3.38;;;1.20;;
8716;SDS011;4395;48.554;8.820;2023-05-17T00:46:23;3.78;;;1.27;;
8716;SDS011;4395;48.554;8.820;2023-05-17T00:48:26;1.20;;;1.10;;
8716;SDS011;4395;48.554;8.820;2023-05-17T00:50:31;4.47;;;1.33;;
8716;SDS011;4395;48.554;8.820;2023-05-17T00:52:34;3.40;;;1.17;;
8716;SDS011;4395;48.554;8.820;2023-05-17T00:54:38;4.38;;;1.55;;
8716;SDS011;4395;48.554;8.820;2023-05-17T00:56:41;4.03;;;1.30;;
8716;SDS011;4395;48.554;8.820;2023-05-17T00:58:44;2.25;;;1.50;;
8716;SDS011;4395;48.554;8.820;2023-05-17T01:00:48;3.28;;;1.20;;
8716;SDS011;4395;48.554;8.820;2023-05-17T01:02:52;4.18;;;1.70;;
8716;SDS011;4395;48.554;8.820;2023-05-17T01:04:56;2.67;;;1.60;;
8716;SDS011;4395;48.554;8.820;2023-05-17T01:07:01;4.72;;;1.73;;
8716;SDS011;4395;48.554;8.820;2023-05-17T01:09:04;2.72;;;1.67;;
8716;SDS011;4395;48.554;8.820;2023-05-17T01:11:12;3.97;;;1.50;;
8716;SDS011;4395;48.554;8.820;2023-05-17T01:13:22;1.60;;;1.33;;
8716;SDS011;4395;48.554;8.820;2023-05-17T01:15:29;3.20;;;1.40;;
8716;SDS011;4395;48.554;8.820;2023-05-17T01:17:35;2.60;;;1.20;;
8716;SDS011;4395;48.554;8.820;2023-05-17T01:19:51;8.20;;;1.30;;
8716;SDS011;4395;48.554;8.820;2023-05-17T01:22:04;3.55;;;1.60;;
8716;SDS011;4395;48.554;8.820;2023-05-17T01:24:22;2.97;;;1.20;;
8716;SDS011;4395;48.554;8.820;2023-05-17T01:26:34;4.07;;;1.52;;
8716;SDS011;4395;48.554;8.820;2023-05-17T01:28:40;3.88;;;1.40;;
8716;SDS011;4395;48.554;8.820;2023-05-17T01:30:46;3.25;;;1.60;;
8716;SDS011;4395;48.554;8.820;2023-05-17T01:32:53;3.20;;;1.40;;
8716;SDS011;4395;48.554;8.820;2023-05-17T01:34:58;3.30;;;1.25;;
8716;SDS011;4395;48.554;8.820;2023-05-17T01:37:01;3.38;;;1.40;;
8716;SDS011;4395;48.554;8.820;2023-05-17T01:39:03;2.83;;;1.05;;
8716;SDS011;4395;48.554;8.820;2023-05-17T01:41:09;4.45;;;1.55;;
8716;SDS011;4395;48.554;8.820;2023-05-17T01:43:21;3.67;;;1.50;;
8716;SDS011;4395;48.554;8.820;2023-05-17T01:45:33;3.33;;;1.25;;
8716;SDS011;4395;48.554;8.820;2023-05-17T01:47:44;4.85;;;1.45;;
8716;SDS011;4395;48.554;8.820;2023-05-17T01:49:56;2.85;;;1.50;;
8716;SDS011;4395;48.554;8.820;2023-05-17T01:52:02;2.97;;;1.38;;
8716;SDS011;4395;48.554;8.820;2023-05-17T01:54:22;3.85;;;2.00;;
8716;SDS011;4395;48.554;8.820;2023-05-17T01:56:32;3.42;;;1.27;;
8716;SDS011;4395;48.554;8.820;2023-05-17T01:58:41;3.28;;;1.23;;
8716;SDS011;4395;48.554;8.820;2023-05-17T02:00:48;4.85;;;1.73;;
8716;SDS011;4395;48.554;8.820;2023-05-17T02:02:53;3.53;;;1.38;;
8716;SDS011;4395;48.554;8.820;2023-05-17T02:04:56;3.22;;;1.30;;
8716;SDS011;4395;48.554;8.820;2023-05-17T02:06:59;3.28;;;1.42;;
8716;SDS011;4395;48.554;8.820;2023-05-17T02:09:02;4.57;;;1.35;;
8716;SDS011;4395;48.554;8.820;2023-05-17T02:11:07;5.68;;;1.55;;
8716;SDS011;4395;48.554;8.820;2023-05-17T02:13:10;1.65;;;1.25;;
8716;SDS011;4395;48.554;8.820;2023-05-17T02:15:14;4.10;;;1.42;;
8716;SDS011;4395;48.554;8.820;2023-05-17T02:17:17;4.30;;;1.65;;
8716;SDS011;4395;48.554;8.820;2023-05-17T02:19:20;3.45;;;1.65;;
8716;SDS011;4395;48.554;8.820;2023-05-17T02:21:23;4.47;;;1.40;;
8716;SDS011;4395;48.554;8.820;2023-05-17T02:23:25;3.28;;;1.60;;
8716;SDS011;4395;48.554;8.820;2023-05-17T02:25:28;6.90;;;1.58;;
8716;SDS011;4395;48.554;8.820;2023-05-17T02:27:32;3.05;;;1.63;;
8716;SDS011;4395;48.554;8.820;2023-05-17T02:29:35;5.55;;;1.92;;
8716;SDS011;4395;48.554;8.820;2023-05-17T02:31:39;2.47;;;1.70;;
8716;SDS011;4395;48.554;8.820;2023-05-17T02:33:44;2.53;;;1.45;;
8716;SDS011;4395;48.554;8.820;2023-05-17T02:35:47;4.55;;;1.55;;
8716;SDS011;4395;48.554;8.820;2023-05-17T02:37:53;4.60;;;1.35;;
8716;SDS011;4395;48.554;8.820;2023-05-17T02:39:55;3.50;;;1.52;;
8716;SDS011;4395;48.554;8.820;2023-05-17T02:41:58;3.47;;;1.60;;
8716;SDS011;4395;48.554;8.820;2023-05-17T02:44:01;3.28;;;1.48;;
8716;SDS011;4395;48.554;8.820;2023-05-17T02:46:04;3.97;;;1.65;;
8716;SDS011;4395;48.554;8.820;2023-05-17T02:48:08;6.10;;;1.70;;
8716;SDS011;4395;48.554;8.820;2023-05-17T02:50:11;4.55;;;1.58;;
8716;SDS011;4395;48.554;8.820;2023-05-17T02:52:14;2.15;;;1.42;;
8716;SDS011;4395;48.554;8.820;2023-05-17T02:54:18;3.15;;;1.67;;
8716;SDS011;4395;48.554;8.820;2023-05-17T02:56:21;3.42;;;1.80;;
8716;SDS011;4395;48.554;8.820;2023-05-17T02:58:23;3.75;;;1.55;;
8716;SDS011;4395;48.554;8.820;2023-05-17T03:00:27;4.03;;;1.67;;
8716;SDS011;4395;48.554;8.820;2023-05-17T03:02:30;3.75;;;1.52;;
8716;SDS011;4395;48.554;8.820;2023-05-17T03:04:34;5.30;;;1.90;;
8716;SDS011;4395;48.554;8.820;2023-05-17T03:06:37;3.78;;;1.75;;
8716;SDS011;4395;48.554;8.820;2023-05-17T03:08:40;2.83;;;1.60;;
8716;SDS011;4395;48.554;8.820;2023-05-17T03:10:43;6.20;;;1.80;;
8716;SDS011;4395;48.554;8.820;2023-05-17T03:12:46;6.18;;;1.60;;
8716;SDS011;4395;48.554;8.820;2023-05-17T03:14:52;3.88;;;1.80;;
8716;SDS011;4395;48.554;8.820;2023-05-17T03:16:55;4.65;;;1.70;;
8716;SDS011;4395;48.554;8.820;2023-05-17T03:18:59;3.63;;;1.73;;
8716;SDS011;4395;48.554;8.820;2023-05-17T03:21:04;3.20;;;1.55;;
8716;SDS011;4395;48.554;8.820;2023-05-17T03:23:07;4.28;;;1.70;;
8716;SDS011;4395;48.554;8.820;2023-05-17T03:25:20;5.10;;;2.00;;
8716;SDS011;4395;48.554;8.820;2023-05-17T03:27:23;3.35;;;1.83;;
8716;SDS011;4395;48.554;8.820;2023-05-17T03:29:26;4.50;;;1.60;;
8716;SDS011;4395;48.554;8.820;2023-05-17T03:31:29;4.90;;;2.28;;
8716;SDS011;4395;48.554;8.820;2023-05-17T03:33:32;2.78;;;1.77;;
8716;SDS011;4395;48.554;8.820;2023-05-17T03:35:35;4.03;;;1.52;;
8716;SDS011;4395;48.554;8.820;2023-05-17T03:37:40;3.72;;;1.70;;
8716;SDS011;4395;48.554;8.820;2023-05-17T03:39:42;4.13;;;1.40;;
8716;SDS011;4395;48.554;8.820;2023-05-17T03:41:45;2.88;;;1.70;;
8716;SDS011;4395;48.554;8.820;2023-05-17T03:43:49;3.63;;;1.73;;
8716;SDS011;4395;48.554;8.820;2023-05-17T03:45:53;2.97;;;1.70;;
8716;SDS011;4395;48.554;8.820;2023-05-17T03:47:56;10.05;;;1.90;;
8716;SDS011;4395;48.554;8.820;2023-05-17T03:50:00;4.93;;;2.00;;
8716;SDS011;4395;48.554;8.820;2023-05-17T03:52:04;8.75;;;2.08;;
8716;SDS011;4395;48.554;8.820;2023-05-17T03:54:09;3.05;;;1.85;;
8716;SDS011;4395;48.554;8.820;2023-05-17T03:56:11;3.55;;;1.98;;
8716;SDS011;4395;48.554;8.820;2023-05-17T03:58:16;2.35;;;1.80;;
8716;SDS011;4395;48.554;8.820;2023-05-17T04:00:19;6.10;;;1.88;;
8716;SDS011;4395;48.554;8.820;2023-05-17T04:02:22;4.30;;;2.00;;
8716;SDS011;4395;48.554;8.820;2023-05-17T04:04:25;6.90;;;2.47;;
8716;SDS011;4395;48.554;8.820;2023-05-17T04:06:31;3.72;;;2.65;;
8716;SDS011;4395;48.554;8.820;2023-05-17T04:08:34;4.75;;;2.22;;
8716;SDS011;4395;48.554;8.820;2023-05-17T04:10:38;5.38;;;1.65;;
8716;SDS011;4395;48.554;8.820;2023-05-17T04:12:42;2.63;;;1.33;;
8716;SDS011;4395;48.554;8.820;2023-05-17T04:14:45;4.60;;;1.75;;
8716;SDS011;4395;48.554;8.820;2023-05-17T04:16:48;2.83;;;1.70;;
8716;SDS011;4395;48.554;8.820;2023-05-17T04:18:51;4.18;;;1.75;;
8716;SDS011;4395;48.554;8.820;2023-05-17T04:20:54;3.50;;;1.85;;
8716;SDS011;4395;48.554;8.820;2023-05-17T04:22:57;4.18;;;2.22;;
8716;SDS011;4395;48.554;8.820;2023-05-17T04:25:03;2.67;;;1.75;;
8716;SDS011;4395;48.554;8.820;2023-05-17T04:27:10;2.63;;;1.42;;
8716;SDS011;4395;48.554;8.820;2023-05-17T04:29:13;6.07;;;1.80;;
8716;SDS011;4395;48.554;8.820;2023-05-17T04:31:16;2.20;;;1.27;;
8716;SDS011;4395;48.554;8.820;2023-05-17T04:33:19;4.10;;;1.73;;
8716;SDS011;4395;48.554;8.820;2023-05-17T04:35:23;5.78;;;1.90;;
8716;SDS011;4395;48.554;8.820;2023-05-17T04:37:28;3.05;;;1.40;;
8716;SDS011;4395;48.554;8.820;2023-05-17T04:39:37;3.22;;;1.65;;
8716;SDS011;4395;48.554;8.820;2023-05-17T04:41:40;3.47;;;2.33;;
8716;SDS011;4395;48.554;8.820;2023-05-17T04:43:47;6.05;;;3.10;;
8716;SDS011;4395;48.554;8.820;2023-05-17T04:46:08;4.97;;;3.28;;
8716;SDS011;4395;48.554;8.820;2023-05-17T04:48:12;5.55;;;3.30;;
8716;SDS011;4395;48.554;8.820;2023-05-17T04:50:16;5.90;;;2.55;;
8716;SDS011;4395;48.554;8.820;2023-05-17T04:52:19;3.40;;;1.90;;
8716;SDS011;4395;48.554;8.820;2023-05-17T04:54:23;5.47;;;2.63;;
8716;SDS011;4395;48.554;8.820;2023-05-17T04:56:27;2.65;;;1.27;;
8716;SDS011;4395;48.554;8.820;2023-05-17T04:58:31;2.67;;;1.50;;
8716;SDS011;4395;48.554;8.820;2023-05-17T05:00:37;4.65;;;1.90;;
8716;SDS011;4395;48.554;8.820;2023-05-17T05:02:41;4.22;;;1.77;;
8716;SDS011;4395;48.554;8.820;2023-05-17T05:04:46;4.32;;;1.77;;
8716;SDS011;4395;48.554;8.820;2023-05-17T05:06:50;2.90;;;1.60;;
8716;SDS011;4395;48.554;8.820;2023-05-17T05:08:53;2.72;;;1.13;;
8716;SDS011;4395;48.554;8.820;2023-05-17T05:10:56;3.50;;;1.42;;
8716;SDS011;4395;48.554;8.820;2023-05-17T05:12:59;4.55;;;2.28;;
8716;SDS011;4395;48.554;8.820;2023-05-17T05:15:02;3.28;;;2.10;;
8716;SDS011;4395;48.554;8.820;2023-05-17T05:17:09;4.95;;;2.25;;
8716;SDS011;4395;48.554;8.820;2023-05-17T05:19:13;2.58;;;2.08;;
8716;SDS011;4395;48.554;8.820;2023-05-17T05:21:20;2.90;;;2.20;;
8716;SDS011;4395;48.554;8.820;2023-05-17T05:23:23;3.47;;;2.05;;
8716;SDS011;4395;48.554;8.820;2023-05-17T05:25:26;3.42;;;2.88;;
8716;SDS011;4395;48.554;8.820;2023-05-17T05:27:29;6.05;;;2.67;;
8716;SDS011;4395;48.554;8.820;2023-05-17T05:29:32;4.40;;;2.30;;
8716;SDS011;4395;48.554;8.820;2023-05-17T05:31:35;6.25;;;2.70;;
8716;SDS011;4395;48.554;8.820;2023-05-17T05:33:41;4.63;;;2.15;;
8716;SDS011;4395;48.554;8.820;2023-05-17T05:35:44;5.50;;;2.35;;
8716;SDS011;4395;48.554;8.820;2023-05-17T05:37:47;5.30;;;2.03;;
8716;SDS011;4395;48.554;8.820;2023-05-17T05:39:50;5.45;;;2.08;;
8716;SDS011;4395;48.554;8.820;2023-05-17T05:41:53;5.30;;;2.13;;
8716;SDS011;4395;48.554;8.820;2023-05-17T05:43:57;5.45;;;2.03;;
8716;SDS011;4395;48.554;8.820;2023-05-17T05:46:00;5.68;;;2.70;;
8716;SDS011;4395;48.554;8.820;2023-05-17T05:48:03;3.05;;;1.60;;
8716;SDS011;4395;48.554;8.820;2023-05-17T05:50:09;5.10;;;2.58;;
8716;SDS011;4395;48.554;8.820;2023-05-17T05:52:13;5.57;;;2.40;;
8716;SDS011;4395;48.554;8.820;2023-05-17T05:54:17;4.10;;;2.15;;
8716;SDS011;4395;48.554;8.820;2023-05-17T05:56:20;7.10;;;2.35;;
8716;SDS011;4395;48.554;8.820;2023-05-17T05:58:25;4.70;;;2.08;;
8716;SDS011;4395;48.554;8.820;2023-05-17T06:00:28;11.10;;;3.13;;
8716;SDS011;4395;48.554;8.820;2023-05-17T06:02:31;6.07;;;2.40;;
8716;SDS011;4395;48.554;8.820;2023-05-17T06:04:35;5.18;;;2.42;;
8716;SDS011;4395;48.554;8.820;2023-05-17T06:06:47;4.53;;;3.00;;
8716;SDS011;4395;48.554;8.820;2023-05-17T06:08:50;7.35;;;4.15;;
8716;SDS011;4395;48.554;8.820;2023-05-17T06:10:53;5.63;;;2.83;;
8716;SDS011;4395;48.554;8.820;2023-05-17T06:12:56;5.35;;;2.15;;
8716;SDS011;4395;48.554;8.820;2023-05-17T06:14:59;6.78;;;2.42;;
8716;SDS011;4395;48.554;8.820;2023-05-17T06:17:02;3.95;;;2.30;;
8716;SDS011;4395;48.554;8.820;2023-05-17T06:19:05;5.10;;;2.38;;
8716;SDS011;4395;48.554;8.820;2023-05-17T06:21:08;5.03;;;2.00;;
8716;SDS011;4395;48.554;8.820;2023-05-17T06:23:14;7.80;;;2.80;;
8716;SDS011;4395;48.554;8.820;2023-05-17T06:25:17;8.85;;;2.50;;
8716;SDS011;4395;48.554;8.820;2023-05-17T06:27:21;5.43;;;3.28;;
8716;SDS011;4395;48.554;8.820;2023-05-17T06:29:23;5.10;;;2.63;;
8716;SDS011;4395;48.554;8.820;2023-05-17T06:31:26;5.38;;;2.30;;
8716;SDS011;4395;48.554;8.820;2023-05-17T06:33:29;6.72;;;2.22;;
8716;SDS011;4395;48.554;8.820;2023-05-17T06:35:33;4.28;;;2.35;;
8716;SDS011;4395;48.554;8.820;2023-05-17T06:37:55;6.13;;;2.88;;
8716;SDS011;4395;48.554;8.820;2023-05-17T06:40:02;8.75;;;2.75;;
8716;SDS011;4395;48.554;8.820;2023-05-17T06:42:16;8.23;;;2.45;;
8716;SDS011;4395;48.554;8.820;2023-05-17T06:44:20;8.40;;;2.22;;
8716;SDS011;4395;48.554;8.820;2023-05-17T06:46:23;9.55;;;2.63;;
8716;SDS011;4395;48.554;8.820;2023-05-17T06:48:25;6.57;;;2.35;;
8716;SDS011;4395;48.554;8.820;2023-05-17T06:50:28;7.88;;;2.35;;
8716;SDS011;4395;48.554;8.820;2023-05-17T06:52:32;10.02;;;2.67;;
8716;SDS011;4395;48.554;8.820;2023-05-17T06:54:35;6.10;;;2.10;;
8716;SDS011;4395;48.554;8.820;2023-05-17T06:56:40;7.57;;;3.28;;
8716;SDS011;4395;48.554;8.820;2023-05-17T06:58:43;6.38;;;2.65;;
8716;SDS011;4395;48.554;8.820;2023-05-17T07:00:46;5.07;;;2.42;;
8716;SDS011;4395;48.554;8.820;2023-05-17T07:02:49;5.43;;;3.00;;
8716;SDS011;4395;48.554;8.820;2023-05-17T07:04:52;4.53;;;2.60;;
8716;SDS011;4395;48.554;8.820;2023-05-17T07:06:57;5.57;;;2.42;;
8716;SDS011;4395;48.554;8.820;2023-05-17T07:08:59;4.15;;;2.22;;
8716;SDS011;4395;48.554;8.820;2023-05-17T07:11:02;5.20;;;2.80;;
8716;SDS011;4395;48.554;8.820;2023-05-17T07:13:06;7.65;;;3.08;;
8716;SDS011;4395;48.554;8.820;2023-05-17T07:15:10;4.47;;;2.80;;
8716;SDS011;4395;48.554;8.820;2023-05-17T07:17:13;7.72;;;2.83;;
8716;SDS011;4395;48.554;8.820;2023-05-17T07:19:15;3.85;;;2.58;;
8716;SDS011;4395;48.554;8.820;2023-05-17T07:21:18;5.25;;;2.92;;
8716;SDS011;4395;48.554;8.820;2023-05-17T07:23:23;8.45;;;2.60;;
8716;SDS011;4395;48.554;8.820;2023-05-17T07:25:26;5.28;;;2.95;;
8716;SDS011;4395;48.554;8.820;2023-05-17T07:27:29;5.25;;;2.95;;
8716;SDS011;4395;48.554;8.820;2023-05-17T07:29:33;5.45;;;2.80;;
8716;SDS011;4395;48.554;8.820;2023-05-17T07:31:36;5.53;;;3.03;;
8716;SDS011;4395;48.554;8.820;2023-05-17T07:33:39;5.63;;;3.40;;
8716;SDS011;4395;48.554;8.820;2023-05-17T07:35:42;5.93;;;2.90;;
8716;SDS011;4395;48.554;8.820;2023-05-17T07:37:44;13.40;;;4.28;;
8716;SDS011;4395;48.554;8.820;2023-05-17T07:39:47;10.65;;;3.17;;
8716;SDS011;4395;48.554;8.820;2023-05-17T07:41:50;12.77;;;3.60;;
8716;SDS011;4395;48.554;8.820;2023-05-17T07:43:53;11.90;;;3.38;;
8716;SDS011;4395;48.554;8.820;2023-05-17T07:45:57;14.80;;;3.38;;
8716;SDS011;4395;48.554;8.820;2023-05-17T07:48:00;10.25;;;3.00;;
8716;SDS011;4395;48.554;8.820;2023-05-17T07:50:03;6.00;;;3.08;;
8716;SDS011;4395;48.554;8.820;2023-05-17T07:52:06;6.85;;;3.13;;
8716;SDS011;4395;48.554;8.820;2023-05-17T07:54:11;5.93;;;3.10;;
8716;SDS011;4395;48.554;8.820;2023-05-17T07:56:23;6.28;;;3.30;;
8716;SDS011;4395;48.554;8.820;2023-05-17T07:58:26;8.15;;;3.75;;
8716;SDS011;4395;48.554;8.820;2023-05-17T08:00:29;41.03;;;6.32;;
8716;SDS011;4395;48.554;8.820;2023-05-17T08:02:34;35.58;;;5.90;;
8716;SDS011;4395;48.554;8.820;2023-05-17T08:04:37;19.08;;;4.78;;
8716;SDS011;4395;48.554;8.820;2023-05-17T08:06:42;23.40;;;4.80;;
8716;SDS011;4395;48.554;8.820;2023-05-17T08:08:46;15.82;;;4.15;;
8716;SDS011;4395;48.554;8.820;2023-05-17T08:10:49;14.25;;;4.05;;
8716;SDS011;4395;48.554;8.820;2023-05-17T08:12:52;16.33;;;4.18;;
8716;SDS011;4395;48.554;8.820;2023-05-17T08:14:55;9.40;;;3.47;;
8716;SDS011;4395;48.554;8.820;2023-05-17T08:16:58;6.30;;;3.08;;
8716;SDS011;4395;48.554;8.820;2023-05-17T08:19:02;13.68;;;3.58;;
8716;SDS011;4395;48.554;8.820;2023-05-17T08:21:05;12.95;;;4.50;;
8716;SDS011;4395;48.554;8.820;2023-05-17T08:23:08;10.55;;;3.60;;
8716;SDS011;4395;48.554;8.820;2023-05-17T08:25:13;5.43;;;3.30;;
8716;SDS011;4395;48.554;8.820;2023-05-17T08:27:16;5.63;;;3.22;;
8716;SDS011;4395;48.554;8.820;2023-05-17T08:29:19;7.32;;;3.28;;
8716;SDS011;4395;48.554;8.820;2023-05-17T08:31:22;5.03;;;3.00;;
8716;SDS011;4395;48.554;8.820;2023-05-17T08:33:24;6.20;;;3.27;;
8716;SDS011;4395;48.554;8.820;2023-05-17T08:35:29;6.25;;;3.03;;
8716;SDS011;4395;48.554;8.820;2023-05-17T08:37:32;7.60;;;3.40;;
8716;SDS011;4395;48.554;8.820;2023-05-17T08:39:35;5.95;;;3.20;;
8716;SDS011;4395;48.554;8.820;2023-05-17T08:41:38;6.75;;;3.25;;
8716;SDS011;4395;48.554;8.820;2023-05-17T08:43:41;5.15;;;3.03;;
8716;SDS011;4395;48.554;8.820;2023-05-17T08:45:44;8.35;;;3.88;;
8716;SDS011;4395;48.554;8.820;2023-05-17T08:47:47;7.97;;;3.63;;
8716;SDS011;4395;48.554;8.820;2023-05-17T08:49:53;7.10;;;3.70;;
8716;SDS011;4395;48.554;8.820;2023-05-17T08:51:59;8.00;;;4.15;;
8716;SDS011;4395;48.554;8.820;2023-05-17T08:54:09;6.53;;;3.38;;
8716;SDS011;4395;48.554;8.820;2023-05-17T08:56:13;5.47;;;3.25;;
8716;SDS011;4395;48.554;8.820;2023-05-17T08:58:19;5.68;;;3.20;;
8716;SDS011;4395;48.554;8.820;2023-05-17T09:00:27;4.90;;;3.28;;
8716;SDS011;4395;48.554;8.820;2023-05-17T09:02:30;6.60;;;3.67;;
8716;SDS011;4395;48.554;8.820;2023-05-17T09:04:33;4.43;;;3.20;;
8716;SDS011;4395;48.554;8.820;2023-05-17T09:06:36;6.53;;;3.60;;
8716;SDS011;4395;48.554;8.820;2023-05-17T09:08:41;5.78;;;3.42;;
8716;SDS011;4395;48.554;8.820;2023-05-17T09:10:44;5.38;;;3.33;;
8716;SDS011;4395;48.554;8.820;2023-05-17T09:12:47;6.32;;;3.55;;
8716;SDS011;4395;48.554;8.820;2023-05-17T09:14:50;7.57;;;3.55;;
8716;SDS011;4395;48.554;8.820;2023-05-17T09:16:54;4.53;;;3.33;;
8716;SDS011;4395;48.554;8.820;2023-05-17T09:18:58;5.00;;;3.20;;
8716;SDS011;4395;48.554;8.820;2023-05-17T09:21:02;10.80;;;4.10;;
8716;SDS011;4395;48.554;8.820;2023-05-17T09:23:06;9.98;;;4.15;;
8716;SDS011;4395;48.554;8.820;2023-05-17T09:25:11;7.33;;;3.60;;
8716;SDS011;4395;48.554;8.820;2023-05-17T09:27:21;5.93;;;3.37;;
8716;SDS011;4395;48.554;8.820;2023-05-17T09:29:24;5.80;;;3.13;;
8716;SDS011;4395;48.554;8.820;2023-05-17T09:31:27;5.70;;;3.40;;
8716;SDS011;4395;48.554;8.820;2023-05-17T09:33:30;6.13;;;3.03;;
8716;SDS011;4395;48.554;8.820;2023-05-17T09:35:33;6.87;;;2.90;;
8716;SDS011;4395;48.554;8.820;2023-05-17T09:37:37;4.83;;;2.83;;
8716;SDS011;4395;48.554;8.820;2023-05-17T09:39:40;5.73;;;3.10;;
8716;SDS011;4395;48.554;8.820;2023-05-17T09:41:46;22.00;;;4.30;;
8716;SDS011;4395;48.554;8.820;2023-05-17T09:43:50;23.53;;;4.90;;
8716;SDS011;4395;48.554;8.820;2023-05-17T09:45:56;23.67;;;6.20;;
8716;SDS011;4395;48.554;8.820;2023-05-17T09:48:09;38.80;;;7.57;;
8716;SDS011;4395;48.554;8.820;2023-05-17T09:50:16;34.33;;;6.63;;
8716;SDS011;4395;48.554;8.820;2023-05-17T09:52:20;12.87;;;3.57;;
8716;SDS011;4395;48.554;8.820;2023-05-17T09:54:23;10.53;;;3.60;;
8716;SDS011;4395;48.554;8.820;2023-05-17T09:56:29;6.60;;;3.33;;
8716;SDS011;4395;48.554;8.820;2023-05-17T09:58:35;9.27;;;3.63;;
8716;SDS011;4395;48.554;8.820;2023-05-17T10:00:38;5.17;;;3.30;;
8716;SDS011;4395;48.554;8.820;2023-05-17T10:02:44;6.83;;;3.10;;
8716;SDS011;4395;48.554;8.820;2023-05-17T10:04:51;5.40;;;3.20;;
8716;SDS011;4395;48.554;8.820;2023-05-17T10:06:57;4.23;;;3.03;;
8716;SDS011;4395;48.554;8.820;2023-05-17T10:09:02;6.20;;;3.50;;
8716;SDS011;4395;48.554;8.820;2023-05-17T10:11:07;6.17;;;3.13;;
8716;SDS011;4395;48.554;8.820;2023-05-17T10:13:11;4.90;;;3.30;;
8716;SDS011;4395;48.554;8.820;2023-05-17T10:15:17;7.37;;;3.30;;
8716;SDS011;4395;48.554;8.820;2023-05-17T10:17:22;6.43;;;3.30;;
8716;SDS011;4395;48.554;8.820;2023-05-17T10:19:27;4.83;;;3.30;;
8716;SDS011;4395;48.554;8.820;2023-05-17T10:21:30;4.73;;;3.30;;
8716;SDS011;4395;48.554;8.820;2023-05-17T10:23:33;5.40;;;3.03;;
8716;SDS011;4395;48.554;8.820;2023-05-17T10:25:39;6.00;;;2.70;;
8716;SDS011;4395;48.554;8.820;2023-05-17T10:27:43;5.97;;;2.77;;
8716;SDS011;4395;48.554;8.820;2023-05-17T10:29:47;5.27;;;3.00;;
8716;SDS011;4395;48.554;8.820;2023-05-17T10:31:52;10.07;;;2.90;;
8716;SDS011;4395;48.554;8.820;2023-05-17T10:33:56;4.93;;;2.93;;
8716;SDS011;4395;48.554;8.820;2023-05-17T10:36:00;3.83;;;2.73;;
8716;SDS011;4395;48.554;8.820;2023-05-17T10:38:03;4.47;;;2.57;;
8716;SDS011;4395;48.554;8.820;2023-05-17T10:40:07;3.20;;;2.90;;
8716;SDS011;4395;48.554;8.820;2023-05-17T10:42:14;4.57;;;2.87;;
8716;SDS011;4395;48.554;8.820;2023-05-17T10:44:19;6.63;;;2.67;;
8716;SDS011;4395;48.554;8.820;2023-05-17T10:46:23;3.70;;;2.80;;
8716;SDS011;4395;48.554;8.820;2023-05-17T10:48:27;4.13;;;2.80;;
8716;SDS011;4395;48.554;8.820;2023-05-17T10:50:32;5.27;;;3.13;;
8716;SDS011;4395;48.554;8.820;2023-05-17T10:52:48;5.37;;;3.47;;
8716;SDS011;4395;48.554;8.820;2023-05-17T10:54:51;3.90;;;3.30;;
8716;SDS011;4395;48.554;8.820;2023-05-17T10:56:57;3.63;;;3.00;;
8716;SDS011;4395;48.554;8.820;2023-05-17T10:59:18;5.77;;;3.00;;
8716;SDS011;4395;48.554;8.820;2023-05-17T11:03:56;3.70;;;3.20;;
8716;SDS011;4395;48.554;8.820;2023-05-17T11:06:12;5.77;;;2.90;;
8716;SDS011;4395;48.554;8.820;2023-05-17T11:08:26;4.40;;;3.03;;
8716;SDS011;4395;48.554;8.820;2023-05-17T11:10:28;5.73;;;3.17;;
8716;SDS011;4395;48.554;8.820;2023-05-17T11:12:34;4.57;;;3.00;;
8716;SDS011;4395;48.554;8.820;2023-05-17T11:14:53;4.90;;;3.43;;
8716;SDS011;4395;48.554;8.820;2023-05-17T11:16:56;5.63;;;3.40;;
8716;SDS011;4395;48.554;8.820;2023-05-17T11:19:05;9.67;;;3.37;;
8716;SDS011;4395;48.554;8.820;2023-05-17T11:21:08;8.20;;;3.50;;
8716;SDS011;4395;48.554;8.820;2023-05-17T11:23:16;5.23;;;3.07;;
8716;SDS011;4395;48.554;8.820;2023-05-17T11:25:20;5.23;;;3.47;;
8716;SDS011;4395;48.554;8.820;2023-05-17T11:27:23;8.30;;;4.23;;
8716;SDS011;4395;48.554;8.820;2023-05-17T11:29:29;5.47;;;3.60;;
8716;SDS011;4395;48.554;8.820;2023-05-17T11:31:32;5.17;;;3.83;;
8716;SDS011;4395;48.554;8.820;2023-05-17T11:33:37;7.37;;;3.80;;
8716;SDS011;4395;48.554;8.820;2023-05-17T11:35:43;4.83;;;3.60;;
8716;SDS011;4395;48.554;8.820;2023-05-17T11:37:46;7.40;;;3.97;;
8716;SDS011;4395;48.554;8.820;2023-05-17T11:40:00;5.30;;;3.67;;
8716;SDS011;4395;48.554;8.820;2023-05-17T11:42:04;4.93;;;3.60;;
8716;SDS011;4395;48.554;8.820;2023-05-17T11:44:07;7.87;;;3.70;;
8716;SDS011;4395;48.554;8.820;2023-05-17T11:46:10;7.60;;;3.93;;
8716;SDS011;4395;48.554;8.820;2023-05-17T11:48:21;5.90;;;3.50;;
8716;SDS011;4395;48.554;8.820;2023-05-17T11:50:26;6.57;;;4.03;;
8716;SDS011;4395;48.554;8.820;2023-05-17T11:52:32;4.70;;;3.70;;
8716;SDS011;4395;48.554;8.820;2023-05-17T11:54:36;5.67;;;4.30;;
8716;SDS011;4395;48.554;8.820;2023-05-17T11:56:41;5.20;;;3.57;;
8716;SDS011;4395;48.554;8.820;2023-05-17T11:58:44;5.70;;;3.63;;
8716;SDS011;4395;48.554;8.820;2023-05-17T12:00:53;6.87;;;4.27;;
8716;SDS011;4395;48.554;8.820;2023-05-17T12:02:58;8.37;;;3.73;;
8716;SDS011;4395;48.554;8.820;2023-05-17T12:05:18;7.30;;;4.25;;
8716;SDS011;4395;48.554;8.820;2023-05-17T12:07:21;6.53;;;4.10;;
8716;SDS011;4395;48.554;8.820;2023-05-17T12:09:27;5.63;;;3.90;;
8716;SDS011;4395;48.554;8.820;2023-05-17T12:11:30;5.20;;;3.70;;
8716;SDS011;4395;48.554;8.820;2023-05-17T12:13:34;5.67;;;4.10;;
8716;SDS011;4395;48.554;8.820;2023-05-17T12:15:37;4.47;;;3.97;;
8716;SDS011;4395;48.554;8.820;2023-05-17T12:17:41;6.37;;;3.77;;
8716;SDS011;4395;48.554;8.820;2023-05-17T12:19:50;8.40;;;4.10;;
8716;SDS011;4395;48.554;8.820;2023-05-17T12:22:04;7.03;;;3.80;;
8716;SDS011;4395;48.554;8.820;2023-05-17T12:24:07;5.63;;;3.80;;
8716;SDS011;4395;48.554;8.820;2023-05-17T12:26:12;5.57;;;3.50;;
8716;SDS011;4395;48.554;8.820;2023-05-17T12:28:16;7.57;;;4.27;;
8716;SDS011;4395;48.554;8.820;2023-05-17T12:30:23;4.93;;;3.73;;
8716;SDS011;4395;48.554;8.820;2023-05-17T12:32:26;6.53;;;4.50;;
8716;SDS011;4395;48.554;8.820;2023-05-17T12:34:29;6.87;;;3.80;;
8716;SDS011;4395;48.554;8.820;2023-05-17T12:36:32;6.20;;;3.73;;
8716;SDS011;4395;48.554;8.820;2023-05-17T12:38:36;6.17;;;3.60;;
8716;SDS011;4395;48.554;8.820;2023-05-17T12:40:41;5.57;;;4.07;;
8716;SDS011;4395;48.554;8.820;2023-05-17T12:42:45;4.73;;;3.83;;
8716;SDS011;4395;48.554;8.820;2023-05-17T12:44:48;5.97;;;3.77;;
8716;SDS011;4395;48.554;8.820;2023-05-17T12:46:52;5.90;;;4.20;;
8716;SDS011;4395;48.554;8.820;2023-05-17T12:48:59;6.43;;;3.83;;
8716;SDS011;4395;48.554;8.820;2023-05-17T12:51:07;7.23;;;3.70;;
8716;SDS011;4395;48.554;8.820;2023-05-17T12:53:12;5.63;;;3.63;;
8716;SDS011;4395;48.554;8.820;2023-05-17T12:55:15;5.97;;;3.67;;
8716;SDS011;4395;48.554;8.820;2023-05-17T12:57:18;5.87;;;3.53;;